Time;durP1;ratioP1;P1;durP2;ratioP2;P2;SDS_P1;SDS_P2;PMS_P1;PMS_P2;Temp;Humidity;BMP_temperature;BMP_pressure;BME280_temperature;BME280_humidity;BME280_pressure;Samples;Min_cycle;Max_cycle;Signal;HPM_P1;HPM_P2
2023/04/15 00:00:24;;;;;;;;;;;;;;;;;;4897119;29;19916;-80
2023/04/15 00:02:50;;;;;;;;;;;;;;;;;;4912777;29;20029;-81
2023/04/15 00:05:15;;;;;;;;;;;;;;;;;;4897969;29;19919;-79
2023/04/15 00:07:40;;;;;;;;;;;;;;;;;;4892083;29;20430;-79
2023/04/15 00:10:06;;;;;;;;;;;;;;;;;;4863433;29;19964;-79
2023/04/15 00:12:31;;;;;;;;;;;;;;;;;;4878748;29;19952;-79
2023/04/15 00:14:57;;;;;;;;;;;;;;;;;;4879560;29;19916;-79
2023/04/15 00:17:23;;;;;;;;;;;;;;;;;;4878455;29;19923;-79
2023/04/15 00:19:48;;;;;;;;;;;;;;;;;;4862917;29;19916;-81
2023/04/15 00:22:13;;;;;;;;;;;;;;;;;;4879761;29;19916;-80
2023/04/15 00:24:39;;;;;;;;;;;;;;;;;;4879965;29;19927;-79
2023/04/15 00:27:04;;;;;;;;;;;;;;;;;;4879288;29;20266;-81
2023/04/15 00:29:30;;;;;;;;;;;;;;;;;;4878735;29;20014;-79
2023/04/15 00:31:59;;;;;;;;;;;;;;;;;;4880486;29;19920;-81
2023/04/15 00:34:24;;;;;;;;;;;;;;;;;;4913901;29;19979;-79
2023/04/15 00:36:50;;;;;;;;;;;;;;;;;;4884503;29;19920;-79
2023/04/15 00:39:15;;;;;;;;;;;;;;;;;;4904912;29;20411;-79
2023/04/15 00:41:41;;;;;;;;;;;;;;;;;;4904017;29;20002;-79
2023/04/15 00:44:08;;;;;;;;;;;;;;;;;;4887346;29;19923;-79
2023/04/15 00:46:33;;;;;;;;;;;;;;;;;;4872009;29;20055;-79
2023/04/15 00:48:59;;;;;;;;;;;;;;;;;;4895863;29;19960;-79
2023/04/15 00:51:24;;;;;;;;;;;;;;;;;;4895672;29;19915;-79
2023/04/15 00:53:50;;;;;;;;;;;;;;;;;;4897709;29;19951;-79
2023/04/15 00:56:16;;;;;;;;;;;;;;;;;;4896031;29;19935;-80
2023/04/15 00:58:41;;;;;;;;;;;;;;;;;;4897530;29;20340;-80
2023/04/15 01:01:07;;;;;;;;;;;;;;;;;;4896660;29;19947;-80
2023/04/15 01:03:32;;;;;;;;;;;;;;;;;;4898346;29;20395;-80
2023/04/15 01:05:57;;;;;;;;;;;;;;;;;;4894017;29;19919;-80
2023/04/15 01:08:23;;;;;;;;;;;;;;;;;;4883264;29;19916;-79
2023/04/15 01:10:48;;;;;;;;;;;;;;;;;;4898311;29;19915;-80
2023/04/15 01:13:14;;;;;;;;;;;;;;;;;;4897924;29;19916;-79
2023/04/15 01:15:39;;;;;;;;;;;;;;;;;;4896609;29;20062;-78
2023/04/15 01:18:04;;;;;;;;;;;;;;;;;;4880970;29;19922;-80
2023/04/15 01:20:30;;;;;;;;;;;;;;;;;;4865853;29;19919;-79
2023/04/15 01:22:55;;;;;;;;;;;;;;;;;;4864379;29;19977;-79
2023/04/15 01:25:21;;;;;;;;;;;;;;;;;;4899430;29;20515;-81
2023/04/15 01:27:46;;;;;;;;;;;;;;;;;;4896978;29;19923;-81
2023/04/15 01:30:12;;;;;;;;;;;;;;;;;;4897412;29;20056;-80
2023/04/15 01:32:37;;;;;;;;;;;;;;;;;;4895740;29;19920;-80
2023/04/15 01:35:21;;;;;;;;;;;;;;;;;;4896140;29;19923;-80
2023/04/15 01:37:47;;;;;;;;;;;;;;;;;;4892779;29;19915;-79
2023/04/15 01:40:12;;;;;;;;;;;;;;;;;;4892640;29;19920;-80
2023/04/15 01:42:39;;;;;;;;;;;;;;;;;;4861545;29;19920;-80
2023/04/15 01:45:07;;;;;;;;;;;;;;;;;;4861389;29;19924;-80
2023/04/15 01:47:33;;;;;;;;;;;;;;;;;;4861697;29;19922;-81
2023/04/15 01:50:00;;;;;;;;;;;;;;;;;;4877285;29;19920;-81
2023/04/15 01:52:28;;;;;;;;;;;;;;;;;;4876941;29;19923;-80
2023/04/15 01:54:56;;;;;;;;;;;;;;;;;;4889645;29;19916;-81
2023/04/15 01:57:23;;;;;;;;;;;;;;;;;;4897751;29;19922;-81
2023/04/15 01:59:51;;;;;;;;;;;;;;;;;;4899458;29;20287;-80
2023/04/15 02:02:18;;;;;;;;;;;;;;;;;;4899193;29;19915;-80
2023/04/15 02:04:44;;;;;;;;;;;;;;;;;;4900307;29;19911;-80
2023/04/15 02:07:11;;;;;;;;;;;;;;;;;;4900732;29;19915;-80
2023/04/15 02:09:38;;;;;;;;;;;;;;;;;;4896228;29;20295;-80
2023/04/15 02:12:07;;;;;;;;;;;;;;;;;;4898815;29;19922;-80
2023/04/15 02:14:34;;;;;;;;;;;;;;;;;;4899451;29;20396;-80
2023/04/15 02:17:06;;;;;;;;;;;;;;;;;;4883383;29;19922;-81
2023/04/15 02:19:32;;;;;;;;;;;;;;;;;;4900052;29;19916;-81
2023/04/15 02:22:00;;;;;;;;;;;;;;;;;;4902563;29;20283;-81
2023/04/15 02:24:27;;;;;;;;;;;;;;;;;;4902204;29;19938;-81
2023/04/15 02:26:53;;;;;;;;;;;;;;;;;;4886959;29;19926;-81
2023/04/15 02:29:22;;;;;;;;;;;;;;;;;;4882426;29;19916;-81
2023/04/15 02:31:49;;;;;;;;;;;;;;;;;;4898062;29;19933;-80
2023/04/15 02:34:15;;;;;;;;;;;;;;;;;;4898139;29;19916;-80
2023/04/15 02:36:47;;;;;;;;;;;;;;;;;;4897138;29;20369;-80
2023/04/15 02:39:15;;;;;;;;;;;;;;;;;;4897576;29;20299;-79
2023/04/15 02:41:42;;;;;;;;;;;;;;;;;;4896672;29;19922;-81
2023/04/15 02:44:11;;;;;;;;;;;;;;;;;;4895374;29;20295;-80
2023/04/15 02:46:40;;;;;;;;;;;;;;;;;;4879906;29;19926;-80
2023/04/15 02:49:07;;;;;;;;;;;;;;;;;;4880134;29;19916;-80
2023/04/15 02:51:35;;;;;;;;;;;;;;;;;;4881378;29;19916;-80
2023/04/15 02:54:02;;;;;;;;;;;;;;;;;;4880199;29;19916;-81
2023/04/15 02:56:29;;;;;;;;;;;;;;;;;;4882061;29;19922;-80
2023/04/15 02:58:56;;;;;;;;;;;;;;;;;;4892479;29;19915;-80
2023/04/15 03:01:23;;;;;;;;;;;;;;;;;;4905255;29;20013;-80
2023/04/15 03:03:50;;;;;;;;;;;;;;;;;;4909058;29;20364;-80
2023/04/15 03:06:16;;;;;;;;;;;;;;;;;;4909591;29;19987;-79
2023/04/15 03:08:44;;;;;;;;;;;;;;;;;;4915963;29;19947;-80
2023/04/15 03:11:11;;;;;;;;;;;;;;;;;;4913737;29;19978;-80
2023/04/15 03:13:40;;;;;;;;;;;;;;;;;;4912252;29;19979;-80
2023/04/15 03:16:11;;;;;;;;;;;;;;;;;;4917162;29;19950;-80
2023/04/15 03:18:38;;;;;;;;;;;;;;;;;;4912887;29;19978;-79
2023/04/15 03:21:05;;;;;;;;;;;;;;;;;;4914328;29;19995;-79
2023/04/15 03:23:34;;;;;;;;;;;;;;;;;;4909533;29;19999;-80
2023/04/15 03:26:02;;;;;;;;;;;;;;;;;;4903732;29;19930;-80
2023/04/15 03:28:29;;;;;;;;;;;;;;;;;;4901905;29;20367;-80
2023/04/15 03:30:55;;;;;;;;;;;;;;;;;;4899406;29;19922;-80
2023/04/15 03:33:22;;;;;;;;;;;;;;;;;;4899108;29;19929;-81
2023/04/15 03:35:49;;;;;;;;;;;;;;;;;;4900852;29;20391;-80
2023/04/15 03:38:16;;;;;;;;;;;;;;;;;;4901478;29;19931;-79
2023/04/15 03:40:42;;;;;;;;;;;;;;;;;;4903649;29;19926;-80
2023/04/15 03:43:09;;;;;;;;;;;;;;;;;;4902513;29;19920;-79
2023/04/15 03:45:35;;;;;;;;;;;;;;;;;;4904813;29;20462;-80
2023/04/15 03:48:02;;;;;;;;;;;;;;;;;;4912789;29;20014;-79
2023/04/15 03:50:29;;;;;;;;;;;;;;;;;;4909165;29;20031;-80
2023/04/15 03:52:55;;;;;;;;;;;;;;;;;;4901540;29;20402;-79
2023/04/15 03:55:22;;;;;;;;;;;;;;;;;;4899805;29;20298;-79
2023/04/15 03:57:49;;;;;;;;;;;;;;;;;;4897470;29;19921;-80
2023/04/15 04:00:15;;;;;;;;;;;;;;;;;;4898373;29;20272;-80
2023/04/15 04:02:42;;;;;;;;;;;;;;;;;;4898243;29;19926;-80
2023/04/15 04:05:09;;;;;;;;;;;;;;;;;;4898244;29;20311;-80
2023/04/15 04:07:36;;;;;;;;;;;;;;;;;;4898370;29;19925;-79
2023/04/15 04:10:02;;;;;;;;;;;;;;;;;;4898763;29;20288;-80
2023/04/15 04:12:29;;;;;;;;;;;;;;;;;;4898550;29;19926;-80
2023/04/15 04:14:56;;;;;;;;;;;;;;;;;;4883024;29;19915;-79
2023/04/15 04:17:22;;;;;;;;;;;;;;;;;;4895140;29;20314;-79
2023/04/15 04:19:49;;;;;;;;;;;;;;;;;;4884340;29;19921;-79
2023/04/15 04:22:15;;;;;;;;;;;;;;;;;;4900591;29;19922;-80
2023/04/15 04:24:42;;;;;;;;;;;;;;;;;;4900107;29;19926;-80
2023/04/15 04:27:09;;;;;;;;;;;;;;;;;;4897942;29;19919;-79
2023/04/15 04:29:36;;;;;;;;;;;;;;;;;;4898220;29;19915;-80
2023/04/15 04:32:02;;;;;;;;;;;;;;;;;;4941076;23;19935;-91
2023/04/15 04:34:29;;;;;;;;;;;;;;;;;;4941494;28;19934;-92
2023/04/15 04:36:56;;;;;;;;;;;;;;;;;;4929644;29;19950;-89
2023/04/15 04:39:23;;;;;;;;;;;;;;;;;;4929449;29;19946;-86
2023/04/15 04:41:51;;;;;;;;;;;;;;;;;;4915360;29;19957;-90
2023/04/15 04:44:18;;;;;;;;;;;;;;;;;;4929550;29;19939;-88
2023/04/15 04:46:45;;;;;;;;;;;;;;;;;;4912445;29;19984;-90
2023/04/15 04:49:12;;;;;;;;;;;;;;;;;;4909666;29;20002;-92
2023/04/15 04:51:38;;;;;;;;;;;;;;;;;;4911063;29;19983;-91
2023/04/15 04:54:08;;;;;;;;;;;;;;;;;;4917519;29;19939;-89
2023/04/15 04:56:38;;;;;;;;;;;;;;;;;;4897320;29;19950;-92
2023/04/15 04:59:05;;;;;;;;;;;;;;;;;;4896748;29;19987;-91
2023/04/15 05:01:33;;;;;;;;;;;;;;;;;;4914960;29;19954;-92
2023/04/15 05:04:02;;;;;;;;;;;;;;;;;;4896167;29;20089;-93
2023/04/15 05:06:34;;;;;;;;;;;;;;;;;;4898075;29;20006;-90
2023/04/15 05:09:01;;;;;;;;;;;;;;;;;;4910251;29;20447;-90
2023/04/15 05:11:28;;;;;;;;;;;;;;;;;;4894895;29;20011;-92
2023/04/15 05:13:56;;;;;;;;;;;;;;;;;;4895665;29;19983;-92
2023/04/15 05:16:24;;;;;;;;;;;;;;;;;;4908201;29;20010;-91
2023/04/15 05:18:51;;;;;;;;;;;;;;;;;;4893201;29;19987;-91
2023/04/15 05:21:18;;;;;;;;;;;;;;;;;;4894471;29;20002;-92
2023/04/15 05:23:45;;;;;;;;;;;;;;;;;;4927646;29;19991;-91
2023/04/15 05:26:17;;;;;;;;;;;;;;;;;;4914866;29;20100;-90
2023/04/15 05:28:47;;;;;;;;;;;;;;;;;;4913727;29;20017;-91
2023/04/15 05:31:14;;;;;;;;;;;;;;;;;;4930906;29;19987;-90
2023/04/15 05:33:41;;;;;;;;;;;;;;;;;;4917811;29;20005;-92
2023/04/15 05:36:08;;;;;;;;;;;;;;;;;;4933923;29;19982;-91
2023/04/15 05:38:36;;;;;;;;;;;;;;;;;;4915236;29;20471;-91
2023/04/15 05:41:03;;;;;;;;;;;;;;;;;;4917418;29;19954;-92
2023/04/15 05:43:30;;;;;;;;;;;;;;;;;;4901298;29;20010;-91
2023/04/15 05:45:57;;;;;;;;;;;;;;;;;;4917810;29;19943;-89
2023/04/15 05:48:27;;;;;;;;;;;;;;;;;;4900422;29;19988;-91
2023/04/15 05:50:59;;;;;;;;;;;;;;;;;;4916637;29;19998;-91
2023/04/15 05:53:26;;;;;;;;;;;;;;;;;;4915162;29;19984;-90
2023/04/15 05:55:53;;;;;;;;;;;;;;;;;;4917432;29;19976;-93
2023/04/15 05:58:20;;;;;;;;;;;;;;;;;;4918581;29;20018;-93
2023/04/15 06:00:47;;;;;;;;;;;;;;;;;;4935721;29;19942;-92
2023/04/15 06:03:22;;;;;;;;;;;;;;;;;;4918102;29;19986;-92
2023/04/15 06:05:50;;;;;;;;;;;;;;;;;;4919052;29;19982;-91
2023/04/15 06:08:17;;;;;;;;;;;;;;;;;;4921399;29;19999;-93
2023/04/15 06:10:47;;;;;;;;;;;;;;;;;;4941007;29;19949;-91
2023/04/15 06:13:24;;;;;;;;;;;;;;;;;;4942635;28;19958;-90
2023/04/15 06:15:51;;;;;;;;;;;;;;;;;;4928209;28;19946;-92
2023/04/15 06:18:19;;;;;;;;;;;;;;;;;;4943362;28;19951;-92
2023/04/15 06:20:45;;;;;;;;;;;;;;;;;;4927417;29;19935;-93
2023/04/15 06:23:12;;;;;;;;;;;;;;;;;;4927336;29;19930;-93
2023/04/15 06:25:39;;;;;;;;;;;;;;;;;;4942767;28;19942;-92
2023/04/15 06:28:06;;;;;;;;;;;;;;;;;;4926277;29;19939;-93
2023/04/15 06:30:33;;;;;;;;;;;;;;;;;;4942545;29;19963;-93
2023/04/15 06:33:00;;;;;;;;;;;;;;;;;;4927271;28;19935;-93
2023/04/15 06:35:27;;;;;;;;;;;;;;;;;;4927167;29;19934;-92
2023/04/15 06:37:54;;;;;;;;;;;;;;;;;;4924991;28;19939;-92
2023/04/15 06:40:21;;;;;;;;;;;;;;;;;;4927293;28;19931;-93
2023/04/15 06:42:47;;;;;;;;;;;;;;;;;;4926666;28;19942;-93
2023/04/15 06:45:16;;;;;;;;;;;;;;;;;;4943139;28;19961;-93
2023/04/15 06:47:45;;;;;;;;;;;;;;;;;;4943019;28;19939;-92
2023/04/15 06:50:12;;;;;;;;;;;;;;;;;;4939755;28;19935;-92
2023/04/15 06:52:39;;;;;;;;;;;;;;;;;;4942797;28;19914;-90
2023/04/15 06:55:06;;;;;;;;;;;;;;;;;;4940707;29;19946;-90
2023/04/15 06:57:33;;;;;;;;;;;;;;;;;;4938805;29;19938;-92
2023/04/15 07:00:02;;;;;;;;;;;;;;;;;;4917725;29;20050;-91
2023/04/15 07:02:31;;;;;;;;;;;;;;;;;;4910250;29;20006;-91
2023/04/15 07:05:01;;;;;;;;;;;;;;;;;;4907135;29;19975;-91
2023/04/15 07:07:27;;;;;;;;;;;;;;;;;;4901577;29;19929;-91
2023/04/15 07:09:54;;;;;;;;;;;;;;;;;;4925683;29;19982;-92
2023/04/15 07:12:21;;;;;;;;;;;;;;;;;;4913344;29;20085;-90
2023/04/15 07:14:48;;;;;;;;;;;;;;;;;;4910750;29;19975;-91
2023/04/15 07:17:17;;;;;;;;;;;;;;;;;;4909985;29;20036;-92
2023/04/15 07:19:44;;;;;;;;;;;;;;;;;;4921931;29;20014;-93
2023/04/15 07:22:11;;;;;;;;;;;;;;;;;;4898278;29;20002;-90
2023/04/15 07:24:38;;;;;;;;;;;;;;;;;;4896337;29;19998;-91
2023/04/15 07:27:07;;;;;;;;;;;;;;;;;;4904067;29;19987;-92
2023/04/15 07:29:35;;;;;;;;;;;;;;;;;;4926039;29;19986;-92
2023/04/15 07:32:09;;;;;;;;;;;;;;;;;;4909776;29;20422;-92
2023/04/15 07:34:37;;;;;;;;;;;;;;;;;;4903506;29;19947;-91
2023/04/15 07:37:16;;;;;;;;;;;;;;;;;;4917721;29;19949;-91
2023/04/15 07:39:52;;;;;;;;;;;;;;;;;;4916831;29;20123;-91
2023/04/15 07:42:29;;;;;;;;;;;;;;;;;;4902885;29;19943;-91
2023/04/15 07:45:04;;;;;;;;;;;;;;;;;;4917994;29;19950;-91
2023/04/15 07:47:31;;;;;;;;;;;;;;;;;;4927102;29;19934;-91
2023/04/15 07:50:01;;;;;;;;;;;;;;;;;;4919613;29;19943;-90
2023/04/15 07:52:28;;;;;;;;;;;;;;;;;;4939603;29;19930;-92
2023/04/15 07:55:00;;;;;;;;;;;;;;;;;;4923115;29;19930;-92
2023/04/15 07:57:30;;;;;;;;;;;;;;;;;;4940083;29;19947;-92
2023/04/15 07:59:59;;;;;;;;;;;;;;;;;;4934377;29;19969;-92
2023/04/15 08:02:28;;;;;;;;;;;;;;;;;;4931684;29;20014;-92
2023/04/15 08:04:58;;;;;;;;;;;;;;;;;;4934910;29;19954;-94
2023/04/15 08:07:26;;;;;;;;;;;;;;;;;;4917754;29;19950;-93
2023/04/15 08:10:04;;;;;;;;;;;;;;;;;;4932910;29;20015;-91
2023/04/15 08:12:35;;;;;;;;;;;;;;;;;;4933962;29;20065;-93
2023/04/15 08:15:06;;;;;;;;;;;;;;;;;;4902618;29;19938;-93
2023/04/15 08:17:33;;;;;;;;;;;;;;;;;;4916175;29;19947;-94
2023/04/15 08:20:08;;;;;;;;;;;;;;;;;;4909515;29;20349;-94
2023/04/15 08:22:35;;;;;;;;;;;;;;;;;;4900355;29;19915;-91
2023/04/15 08:25:02;;;;;;;;;;;;;;;;;;4884391;29;19915;-93
2023/04/15 08:27:31;;;;;;;;;;;;;;;;;;4886926;29;19925;-95
2023/04/15 08:29:58;;;;;;;;;;;;;;;;;;4885411;29;19919;-94
2023/04/15 08:32:29;;;;;;;;;;;;;;;;;;4897106;29;19975;-93
2023/04/15 08:34:59;;;;;;;;;;;;;;;;;;4903327;29;19937;-94
2023/04/15 08:37:26;;;;;;;;;;;;;;;;;;4902160;29;19938;-93
2023/04/15 08:39:55;;;;;;;;;;;;;;;;;;4900948;29;20035;-93
2023/04/15 08:42:21;;;;;;;;;;;;;;;;;;4917934;29;19922;-95
2023/04/15 08:44:51;;;;;;;;;;;;;;;;;;4902675;29;19935;-93
2023/04/15 08:47:18;;;;;;;;;;;;;;;;;;4917470;29;19922;-91
2023/04/15 08:49:52;;;;;;;;;;;;;;;;;;4907151;29;20304;-91
2023/04/15 08:52:19;;;;;;;;;;;;;;;;;;4902473;29;20391;-93
2023/04/15 08:54:46;;;;;;;;;;;;;;;;;;4901664;29;19915;-92
2023/04/15 08:57:13;;;;;;;;;;;;;;;;;;4917701;29;19925;-91
2023/04/15 08:59:40;;;;;;;;;;;;;;;;;;4911867;29;20310;-92
2023/04/15 09:02:07;;;;;;;;;;;;;;;;;;4902293;29;20002;-88
2023/04/15 09:04:34;;;;;;;;;;;;;;;;;;4904121;29;19915;-91
2023/04/15 09:07:01;;;;;;;;;;;;;;;;;;4914356;29;20302;-92
2023/04/15 09:09:27;;;;;;;;;;;;;;;;;;4902956;29;20376;-93
2023/04/15 09:11:54;;;;;;;;;;;;;;;;;;4901697;29;20021;-92
2023/04/15 09:14:21;;;;;;;;;;;;;;;;;;4903760;29;19915;-93
2023/04/15 09:16:48;;;;;;;;;;;;;;;;;;4920031;29;20409;-92
2023/04/15 09:19:15;;;;;;;;;;;;;;;;;;4905356;29;19922;-93
2023/04/15 09:21:41;;;;;;;;;;;;;;;;;;4917168;29;19921;-92
2023/04/15 09:24:08;;;;;;;;;;;;;;;;;;4886082;29;19938;-92
2023/04/15 09:26:35;;;;;;;;;;;;;;;;;;4885338;29;19915;-91
2023/04/15 09:29:01;;;;;;;;;;;;;;;;;;4904491;29;19924;-91
2023/04/15 09:31:28;;;;;;;;;;;;;;;;;;4902865;29;19918;-91
2023/04/15 09:33:57;;;;;;;;;;;;;;;;;;4903027;29;20295;-91
2023/04/15 09:36:24;;;;;;;;;;;;;;;;;;4902012;29;19926;-90
2023/04/15 09:38:51;;;;;;;;;;;;;;;;;;4903495;29;19919;-92
2023/04/15 09:41:18;;;;;;;;;;;;;;;;;;4903542;29;19915;-91
2023/04/15 09:43:45;;;;;;;;;;;;;;;;;;4903516;29;20259;-90
2023/04/15 09:46:11;;;;;;;;;;;;;;;;;;4885980;29;19922;-92
2023/04/15 09:48:38;;;;;;;;;;;;;;;;;;4909130;29;19919;-89
2023/04/15 09:51:10;;;;;;;;;;;;;;;;;;4906154;29;19922;-93
2023/04/15 09:53:37;;;;;;;;;;;;;;;;;;4922230;29;19915;-91
2023/04/15 09:56:06;;;;;;;;;;;;;;;;;;4924577;29;19915;-92
2023/04/15 09:58:33;;;;;;;;;;;;;;;;;;4939301;29;19949;-92
2023/04/15 10:01:00;;;;;;;;;;;;;;;;;;4941774;29;19943;-92
2023/04/15 10:03:27;;;;;;;;;;;;;;;;;;4942724;29;19942;-91
2023/04/15 10:05:54;;;;;;;;;;;;;;;;;;4938152;28;19935;-91
2023/04/15 10:08:21;;;;;;;;;;;;;;;;;;4943037;28;19962;-94
2023/04/15 10:10:47;;;;;;;;;;;;;;;;;;4942455;28;19966;-93
2023/04/15 10:13:14;;;;;;;;;;;;;;;;;;4942497;28;19951;-92
2023/04/15 10:15:41;;;;;;;;;;;;;;;;;;4925607;28;19949;-92
2023/04/15 10:18:08;;;;;;;;;;;;;;;;;;4936637;29;19953;-93
2023/04/15 10:20:35;;;;;;;;;;;;;;;;;;4936086;29;19958;-93
2023/04/15 10:23:02;;;;;;;;;;;;;;;;;;4932862;29;19991;-91
2023/04/15 10:25:28;;;;;;;;;;;;;;;;;;4900004;29;19991;-92
2023/04/15 10:27:55;;;;;;;;;;;;;;;;;;4888705;29;19922;-91
2023/04/15 10:30:22;;;;;;;;;;;;;;;;;;4888191;29;20399;-90
2023/04/15 10:32:48;;;;;;;;;;;;;;;;;;4920996;23;19938;-85
2023/04/15 10:35:15;;;;;;;;;;;;;;;;;;4919823;29;19937;-84
2023/04/15 10:37:42;;;;;;;;;;;;;;;;;;4920742;29;19915;-85
2023/04/15 10:40:09;;;;;;;;;;;;;;;;;;4918775;29;19923;-85
2023/04/15 10:42:35;;;;;;;;;;;;;;;;;;4919406;29;19915;-85
2023/04/15 10:45:02;;;;;;;;;;;;;;;;;;4918218;29;19915;-85
2023/04/15 10:47:29;;;;;;;;;;;;;;;;;;4910515;29;19920;-85
2023/04/15 10:49:56;;;;;;;;;;;;;;;;;;4891184;29;20384;-85
2023/04/15 10:52:23;;;;;;;;;;;;;;;;;;4922075;29;19915;-83
2023/04/15 10:54:50;;;;;;;;;;;;;;;;;;4919337;29;20368;-86
2023/04/15 10:57:16;;;;;;;;;;;;;;;;;;4915670;29;19919;-86
2023/04/15 10:59:43;;;;;;;;;;;;;;;;;;4917675;29;20383;-85
2023/04/15 11:02:10;;;;;;;;;;;;;;;;;;4901943;29;19915;-85
2023/04/15 11:04:36;;;;;;;;;;;;;;;;;;4918550;29;20268;-86
2023/04/15 11:07:03;;;;;;;;;;;;;;;;;;4917148;29;19922;-85
2023/04/15 11:09:30;;;;;;;;;;;;;;;;;;4904898;29;20383;-85
2023/04/15 11:11:57;;;;;;;;;;;;;;;;;;4911204;29;19915;-87
2023/04/15 11:14:24;;;;;;;;;;;;;;;;;;4917720;29;20290;-86
2023/04/15 11:16:50;;;;;;;;;;;;;;;;;;4919130;29;19931;-85
2023/04/15 11:19:17;;;;;;;;;;;;;;;;;;4905998;29;19922;-86
2023/04/15 11:21:44;;;;;;;;;;;;;;;;;;4900921;29;19915;-85
2023/04/15 11:24:10;;;;;;;;;;;;;;;;;;4901679;29;19922;-86
2023/04/15 11:26:37;;;;;;;;;;;;;;;;;;4903541;29;20762;-86
2023/04/15 11:29:04;;;;;;;;;;;;;;;;;;4907962;29;19915;-85
2023/04/15 11:31:31;;;;;;;;;;;;;;;;;;4904715;29;19927;-84
2023/04/15 11:33:58;;;;;;;;;;;;;;;;;;4910457;29;20303;-84
2023/04/15 11:36:26;;;;;;;;;;;;;;;;;;4903658;29;19922;-85
2023/04/15 11:38:52;;;;;;;;;;;;;;;;;;4910081;29;19916;-85
2023/04/15 11:41:19;;;;;;;;;;;;;;;;;;4908867;29;19915;-83
2023/04/15 11:43:46;;;;;;;;;;;;;;;;;;4895073;29;20279;-85
2023/04/15 11:46:13;;;;;;;;;;;;;;;;;;4907320;29;19922;-84
2023/04/15 11:48:40;;;;;;;;;;;;;;;;;;4895951;29;19923;-85
2023/04/15 11:51:07;;;;;;;;;;;;;;;;;;4896206;29;19941;-81
2023/04/15 11:53:32;;;;;;;;;;;;;;;;;;4896051;29;20439;-83
2023/04/15 11:55:57;;;;;;;;;;;;;;;;;;4897492;29;20430;-85
2023/04/15 11:58:23;;;;;;;;;;;;;;;;;;4898319;29;19915;-84
2023/04/15 12:00:48;;;;;;;;;;;;;;;;;;4898160;29;20387;-85
2023/04/15 12:03:14;;;;;;;;;;;;;;;;;;4897824;29;20349;-84
2023/04/15 12:05:40;;;;;;;;;;;;;;;;;;4896868;29;20430;-84
2023/04/15 12:08:06;;;;;;;;;;;;;;;;;;4899301;29;20387;-78
2023/04/15 12:10:31;;;;;;;;;;;;;;;;;;4897851;29;19978;-81
2023/04/15 12:12:57;;;;;;;;;;;;;;;;;;4896533;29;19917;-82
2023/04/15 12:15:22;;;;;;;;;;;;;;;;;;4896608;29;19923;-82
2023/04/15 12:17:48;;;;;;;;;;;;;;;;;;4906548;29;19923;-82
2023/04/15 12:20:15;;;;;;;;;;;;;;;;;;4905706;29;19911;-82
2023/04/15 12:22:41;;;;;;;;;;;;;;;;;;4892964;29;19916;-84
2023/04/15 12:25:06;;;;;;;;;;;;;;;;;;4899199;29;20294;-85
2023/04/15 12:27:32;;;;;;;;;;;;;;;;;;4915292;29;19917;-84
2023/04/15 12:29:57;;;;;;;;;;;;;;;;;;4883304;29;19926;-83
2023/04/15 12:32:22;;;;;;;;;;;;;;;;;;4883649;29;19923;-84
2023/04/15 12:34:48;;;;;;;;;;;;;;;;;;4898724;29;19921;-84
2023/04/15 12:37:13;;;;;;;;;;;;;;;;;;4914210;29;19919;-84
2023/04/15 12:39:38;;;;;;;;;;;;;;;;;;4890626;29;19916;-84
2023/04/15 12:42:04;;;;;;;;;;;;;;;;;;4899836;29;19915;-85
2023/04/15 12:44:29;;;;;;;;;;;;;;;;;;4916848;29;20395;-84
2023/04/15 12:46:55;;;;;;;;;;;;;;;;;;4915688;29;19915;-84
2023/04/15 12:49:20;;;;;;;;;;;;;;;;;;4900258;29;19966;-83
2023/04/15 12:51:46;;;;;;;;;;;;;;;;;;4916150;29;19915;-84
2023/04/15 12:54:11;;;;;;;;;;;;;;;;;;4915991;29;19915;-83
2023/04/15 12:56:37;;;;;;;;;;;;;;;;;;4915927;29;20409;-84
2023/04/15 12:59:02;;;;;;;;;;;;;;;;;;4906984;29;19959;-85
2023/04/15 13:01:27;;;;;;;;;;;;;;;;;;4882086;29;20331;-84
2023/04/15 13:03:53;;;;;;;;;;;;;;;;;;4898158;29;19916;-84
2023/04/15 13:06:18;;;;;;;;;;;;;;;;;;4898238;29;19911;-84
2023/04/15 13:08:44;;;;;;;;;;;;;;;;;;4882739;29;20372;-84
2023/04/15 13:11:09;;;;;;;;;;;;;;;;;;4883060;29;19923;-84
2023/04/15 13:13:35;;;;;;;;;;;;;;;;;;4897608;29;19920;-84
2023/04/15 13:16:00;;;;;;;;;;;;;;;;;;4899800;29;19922;-84
2023/04/15 13:18:25;;;;;;;;;;;;;;;;;;4901125;29;19970;-83
2023/04/15 13:20:51;;;;;;;;;;;;;;;;;;4903693;29;19926;-83
2023/04/15 13:23:16;;;;;;;;;;;;;;;;;;4913105;29;19922;-83
2023/04/15 13:25:42;;;;;;;;;;;;;;;;;;4919627;29;19923;-83
2023/04/15 13:28:07;;;;;;;;;;;;;;;;;;4918329;29;19983;-84
2023/04/15 13:30:32;;;;;;;;;;;;;;;;;;4920831;29;19916;-84
2023/04/15 13:32:58;;;;;;;;;;;;;;;;;;4920666;29;20098;-83
2023/04/15 13:35:23;;;;;;;;;;;;;;;;;;4930162;29;19961;-84
2023/04/15 13:37:49;;;;;;;;;;;;;;;;;;4918644;29;19915;-84
2023/04/15 13:40:15;;;;;;;;;;;;;;;;;;4935648;29;19939;-83
2023/04/15 13:42:40;;;;;;;;;;;;;;;;;;4927895;29;19919;-84
2023/04/15 13:45:06;;;;;;;;;;;;;;;;;;4926709;29;19922;-82
2023/04/15 13:47:31;;;;;;;;;;;;;;;;;;4920409;29;20513;-85
2023/04/15 13:49:57;;;;;;;;;;;;;;;;;;4915880;29;19919;-84
2023/04/15 13:52:24;;;;;;;;;;;;;;;;;;4899191;29;20373;-84
2023/04/15 13:54:49;;;;;;;;;;;;;;;;;;4899764;29;19991;-84
2023/04/15 13:57:15;;;;;;;;;;;;;;;;;;4884024;29;19919;-84
2023/04/15 13:59:40;;;;;;;;;;;;;;;;;;4899768;29;19915;-85
2023/04/15 14:02:06;;;;;;;;;;;;;;;;;;4884936;29;19927;-83
2023/04/15 14:04:31;;;;;;;;;;;;;;;;;;4883899;29;19938;-84
2023/04/15 14:06:56;;;;;;;;;;;;;;;;;;4883934;29;19960;-83
2023/04/15 14:09:22;;;;;;;;;;;;;;;;;;4900841;29;20041;-84
2023/04/15 14:11:48;;;;;;;;;;;;;;;;;;4883498;29;19943;-85
2023/04/15 14:14:13;;;;;;;;;;;;;;;;;;4899265;29;20372;-84
2023/04/15 14:16:39;;;;;;;;;;;;;;;;;;4898682;29;19920;-84
2023/04/15 14:19:05;;;;;;;;;;;;;;;;;;4902230;29;19986;-84
2023/04/15 14:21:31;;;;;;;;;;;;;;;;;;4898661;29;19926;-84
2023/04/15 14:23:56;;;;;;;;;;;;;;;;;;4883064;29;19915;-85
2023/04/15 14:26:22;;;;;;;;;;;;;;;;;;4898312;29;20380;-85
2023/04/15 14:28:47;;;;;;;;;;;;;;;;;;4898881;29;19915;-84
2023/04/15 14:31:13;;;;;;;;;;;;;;;;;;4899764;29;20291;-84
2023/04/15 14:33:38;;;;;;;;;;;;;;;;;;4900218;29;19987;-85
2023/04/15 14:36:04;;;;;;;;;;;;;;;;;;4913590;29;19915;-84
2023/04/15 14:38:29;;;;;;;;;;;;;;;;;;4920000;29;19926;-84
2023/04/15 14:40:55;;;;;;;;;;;;;;;;;;4918431;29;19916;-84
2023/04/15 14:43:20;;;;;;;;;;;;;;;;;;4917029;29;19916;-84
2023/04/15 14:45:46;;;;;;;;;;;;;;;;;;4918312;29;19915;-85
2023/04/15 14:48:12;;;;;;;;;;;;;;;;;;4922006;29;20058;-83
2023/04/15 14:50:37;;;;;;;;;;;;;;;;;;4918156;29;19919;-83
2023/04/15 14:53:02;;;;;;;;;;;;;;;;;;4903347;29;19919;-85
2023/04/15 14:55:28;;;;;;;;;;;;;;;;;;4882379;29;20028;-84
2023/04/15 14:57:53;;;;;;;;;;;;;;;;;;4883746;29;20279;-85
2023/04/15 15:00:18;;;;;;;;;;;;;;;;;;4900513;29;19922;-85
2023/04/15 15:02:46;;;;;;;;;;;;;;;;;;4899249;29;19916;-83
2023/04/15 15:05:11;;;;;;;;;;;;;;;;;;4898601;29;19919;-84
2023/04/15 15:07:37;;;;;;;;;;;;;;;;;;4899440;29;20312;-84
2023/04/15 15:10:02;;;;;;;;;;;;;;;;;;4901115;29;19946;-84
2023/04/15 15:12:28;;;;;;;;;;;;;;;;;;4899446;29;20010;-83
2023/04/15 15:14:53;;;;;;;;;;;;;;;;;;4898933;29;19934;-84
2023/04/15 15:17:18;;;;;;;;;;;;;;;;;;4882081;29;20415;-84
2023/04/15 15:19:44;;;;;;;;;;;;;;;;;;4897455;29;20107;-84
2023/04/15 15:22:09;;;;;;;;;;;;;;;;;;4897389;29;20407;-84
2023/04/15 15:24:35;;;;;;;;;;;;;;;;;;4883834;29;19923;-84
2023/04/15 15:27:00;;;;;;;;;;;;;;;;;;4905007;29;20014;-84
2023/04/15 15:29:26;;;;;;;;;;;;;;;;;;4922172;29;20096;-84
2023/04/15 15:31:51;;;;;;;;;;;;;;;;;;4924081;29;19957;-84
2023/04/15 15:34:17;;;;;;;;;;;;;;;;;;4924931;29;19930;-84
2023/04/15 15:36:42;;;;;;;;;;;;;;;;;;4918962;29;20350;-85
2023/04/15 15:39:07;;;;;;;;;;;;;;;;;;4916988;29;19915;-85
2023/04/15 15:41:33;;;;;;;;;;;;;;;;;;4916682;29;20018;-84
2023/04/15 15:43:58;;;;;;;;;;;;;;;;;;4897595;29;20371;-85
2023/04/15 15:46:24;;;;;;;;;;;;;;;;;;4914697;29;20418;-85
2023/04/15 15:48:50;;;;;;;;;;;;;;;;;;4915843;29;19975;-85
2023/04/15 15:51:15;;;;;;;;;;;;;;;;;;4917145;29;19966;-84
2023/04/15 15:53:41;;;;;;;;;;;;;;;;;;4915652;29;19974;-84
2023/04/15 15:56:06;;;;;;;;;;;;;;;;;;4900420;29;19922;-84
2023/04/15 15:58:31;;;;;;;;;;;;;;;;;;4900637;29;19919;-85
2023/04/15 16:00:57;;;;;;;;;;;;;;;;;;4912227;29;19915;-84
2023/04/15 16:03:22;;;;;;;;;;;;;;;;;;4913336;29;19916;-83
2023/04/15 16:05:48;;;;;;;;;;;;;;;;;;4916985;29;19915;-83
2023/04/15 16:08:13;;;;;;;;;;;;;;;;;;4900022;29;19915;-83
2023/04/15 16:10:39;;;;;;;;;;;;;;;;;;4899895;29;20021;-85
2023/04/15 16:13:05;;;;;;;;;;;;;;;;;;4900526;29;19970;-85
2023/04/15 16:15:30;;;;;;;;;;;;;;;;;;4899635;29;19915;-85
2023/04/15 16:17:55;;;;;;;;;;;;;;;;;;4900236;29;19975;-84
2023/04/15 16:20:21;;;;;;;;;;;;;;;;;;4901123;29;20427;-84
2023/04/15 16:22:46;;;;;;;;;;;;;;;;;;4901895;29;20398;-84
2023/04/15 16:25:12;;;;;;;;;;;;;;;;;;4915984;29;20394;-84
2023/04/15 16:27:37;;;;;;;;;;;;;;;;;;4918101;29;20379;-84
2023/04/15 16:30:03;;;;;;;;;;;;;;;;;;4910385;29;19966;-84
2023/04/15 16:32:28;;;;;;;;;;;;;;;;;;4900693;29;20446;-84
2023/04/15 16:34:54;;;;;;;;;;;;;;;;;;4903331;29;19919;-83
2023/04/15 16:37:20;;;;;;;;;;;;;;;;;;4903811;29;19920;-84
2023/04/15 16:39:45;;;;;;;;;;;;;;;;;;4901195;29;19942;-84
2023/04/15 16:42:11;;;;;;;;;;;;;;;;;;4918992;29;19904;-82